sensor_id;sensor_type;location;lat;lon;timestamp;temperature;humidity
52555;DHT22;38455;52.710;6.502;2023-11-19T00:00:17;11.20;99.90
52555;DHT22;38455;52.710;6.502;2023-11-19T00:02:43;11.20;99.90
52555;DHT22;38455;52.710;6.502;2023-11-19T00:05:09;11.30;99.90
52555;DHT22;38455;52.710;6.502;2023-11-19T00:07:37;11.40;99.90
52555;DHT22;38455;52.710;6.502;2023-11-19T00:10:03;11.40;99.90
52555;DHT22;38455;52.710;6.502;2023-11-19T00:12:32;11.40;99.90
52555;DHT22;38455;52.710;6.502;2023-11-19T00:14:58;11.40;99.90
52555;DHT22;38455;52.710;6.502;2023-11-19T00:17:23;11.30;99.90
52555;DHT22;38455;52.710;6.502;2023-11-19T00:19:49;11.40;99.90
52555;DHT22;38455;52.710;6.502;2023-11-19T00:22:17;11.40;99.90
52555;DHT22;38455;52.710;6.502;2023-11-19T00:24:42;11.40;99.90
52555;DHT22;38455;52.710;6.502;2023-11-19T00:27:08;11.50;99.90
52555;DHT22;38455;52.710;6.502;2023-11-19T00:29:33;11.50;99.90
52555;DHT22;38455;52.710;6.502;2023-11-19T00:31:59;11.50;99.90
52555;DHT22;38455;52.710;6.502;2023-11-19T00:34:25;11.50;99.90
52555;DHT22;38455;52.710;6.502;2023-11-19T00:36:51;11.60;99.90
52555;DHT22;38455;52.710;6.502;2023-11-19T00:39:16;11.60;99.90
52555;DHT22;38455;52.710;6.502;2023-11-19T00:41:43;11.60;99.90
52555;DHT22;38455;52.710;6.502;2023-11-19T00:44:08;11.60;99.90
52555;DHT22;38455;52.710;6.502;2023-11-19T00:46:34;11.60;99.90
52555;DHT22;38455;52.710;6.502;2023-11-19T00:49:00;11.60;99.90
52555;DHT22;38455;52.710;6.502;2023-11-19T00:51:26;11.60;99.90
52555;DHT22;38455;52.710;6.502;2023-11-19T00:53:52;11.60;99.90
52555;DHT22;38455;52.710;6.502;2023-11-19T00:56:20;11.70;99.90
52555;DHT22;38455;52.710;6.502;2023-11-19T00:58:46;11.60;99.90
52555;DHT22;38455;52.710;6.502;2023-11-19T01:01:13;11.70;99.90
52555;DHT22;38455;52.710;6.502;2023-11-19T01:03:38;11.70;99.90
52555;DHT22;38455;52.710;6.502;2023-11-19T01:06:04;11.70;99.90
52555;DHT22;38455;52.710;6.502;2023-11-19T01:08:30;11.60;99.90
52555;DHT22;38455;52.710;6.502;2023-11-19T01:10:56;11.70;99.90
52555;DHT22;38455;52.710;6.502;2023-11-19T01:13:21;11.60;99.90
52555;DHT22;38455;52.710;6.502;2023-11-19T01:15:47;11.70;99.90
52555;DHT22;38455;52.710;6.502;2023-11-19T01:18:13;11.70;99.90
52555;DHT22;38455;52.710;6.502;2023-11-19T01:20:39;11.70;99.90
52555;DHT22;38455;52.710;6.502;2023-11-19T01:23:04;11.70;99.90
52555;DHT22;38455;52.710;6.502;2023-11-19T01:25:30;11.80;99.90
52555;DHT22;38455;52.710;6.502;2023-11-19T01:27:56;11.70;99.90
52555;DHT22;38455;52.710;6.502;2023-11-19T01:30:24;11.80;99.90
52555;DHT22;38455;52.710;6.502;2023-11-19T01:32:50;11.70;99.90
52555;DHT22;38455;52.710;6.502;2023-11-19T01:35:16;11.80;99.90
52555;DHT22;38455;52.710;6.502;2023-11-19T01:37:41;11.80;99.90
52555;DHT22;38455;52.710;6.502;2023-11-19T01:40:07;11.80;99.90
52555;DHT22;38455;52.710;6.502;2023-11-19T01:42:39;11.90;99.90
52555;DHT22;38455;52.710;6.502;2023-11-19T01:45:06;11.80;99.90
52555;DHT22;38455;52.710;6.502;2023-11-19T01:47:33;11.80;99.90
52555;DHT22;38455;52.710;6.502;2023-11-19T01:50:01;11.80;99.90
52555;DHT22;38455;52.710;6.502;2023-11-19T01:52:27;11.80;99.90
52555;DHT22;38455;52.710;6.502;2023-11-19T01:54:53;11.80;99.90
52555;DHT22;38455;52.710;6.502;2023-11-19T01:57:21;11.90;99.90
52555;DHT22;38455;52.710;6.502;2023-11-19T01:59:51;11.90;99.90
52555;DHT22;38455;52.710;6.502;2023-11-19T02:02:18;11.90;99.90
52555;DHT22;38455;52.710;6.502;2023-11-19T02:04:50;11.80;99.90
52555;DHT22;38455;52.710;6.502;2023-11-19T02:07:16;11.90;99.90
52555;DHT22;38455;52.710;6.502;2023-11-19T02:09:43;11.90;99.90
52555;DHT22;38455;52.710;6.502;2023-11-19T02:12:09;11.80;99.90
52555;DHT22;38455;52.710;6.502;2023-11-19T02:14:37;11.90;99.90
52555;DHT22;38455;52.710;6.502;2023-11-19T02:17:03;11.80;99.90
52555;DHT22;38455;52.710;6.502;2023-11-19T02:19:29;11.80;99.90
52555;DHT22;38455;52.710;6.502;2023-11-19T02:21:55;11.80;99.90
52555;DHT22;38455;52.710;6.502;2023-11-19T02:24:22;11.80;99.90
52555;DHT22;38455;52.710;6.502;2023-11-19T02:27:16;11.80;99.90
52555;DHT22;38455;52.710;6.502;2023-11-19T02:29:44;11.90;99.90
52555;DHT22;38455;52.710;6.502;2023-11-19T02:32:10;11.90;99.90
52555;DHT22;38455;52.710;6.502;2023-11-19T02:34:38;11.90;99.90
52555;DHT22;38455;52.710;6.502;2023-11-19T02:37:04;11.90;99.90
52555;DHT22;38455;52.710;6.502;2023-11-19T02:39:30;11.90;99.90
52555;DHT22;38455;52.710;6.502;2023-11-19T02:41:56;12.00;99.90
52555;DHT22;38455;52.710;6.502;2023-11-19T02:44:22;12.00;99.90
52555;DHT22;38455;52.710;6.502;2023-11-19T02:46:48;12.00;99.90
52555;DHT22;38455;52.710;6.502;2023-11-19T02:49:14;12.00;99.90
52555;DHT22;38455;52.710;6.502;2023-11-19T02:51:41;12.00;99.90
52555;DHT22;38455;52.710;6.502;2023-11-19T02:54:06;12.00;99.90
52555;DHT22;38455;52.710;6.502;2023-11-19T02:56:32;12.00;99.90
52555;DHT22;38455;52.710;6.502;2023-11-19T02:59:02;12.00;99.90
52555;DHT22;38455;52.710;6.502;2023-11-19T03:01:40;12.00;99.90
52555;DHT22;38455;52.710;6.502;2023-11-19T03:04:09;12.00;99.90
52555;DHT22;38455;52.710;6.502;2023-11-19T03:06:37;12.00;99.90
52555;DHT22;38455;52.710;6.502;2023-11-19T03:09:03;12.00;99.90
52555;DHT22;38455;52.710;6.502;2023-11-19T03:11:33;12.00;99.90
52555;DHT22;38455;52.710;6.502;2023-11-19T03:13:59;11.90;99.90
52555;DHT22;38455;52.710;6.502;2023-11-19T03:16:25;11.90;99.90
52555;DHT22;38455;52.710;6.502;2023-11-19T03:18:50;11.80;99.90
52555;DHT22;38455;52.710;6.502;2023-11-19T03:21:16;11.70;99.90
52555;DHT22;38455;52.710;6.502;2023-11-19T03:23:41;11.70;99.90
52555;DHT22;38455;52.710;6.502;2023-11-19T03:26:10;11.70;99.90
52555;DHT22;38455;52.710;6.502;2023-11-19T03:28:36;11.60;99.90
52555;DHT22;38455;52.710;6.502;2023-11-19T03:31:04;11.60;99.90
52555;DHT22;38455;52.710;6.502;2023-11-19T03:33:33;11.70;99.90
52555;DHT22;38455;52.710;6.502;2023-11-19T03:35:59;11.70;99.90
52555;DHT22;38455;52.710;6.502;2023-11-19T03:38:24;11.70;99.90
52555;DHT22;38455;52.710;6.502;2023-11-19T03:40:50;11.80;99.90
52555;DHT22;38455;52.710;6.502;2023-11-19T03:43:16;11.80;99.90
52555;DHT22;38455;52.710;6.502;2023-11-19T03:45:42;11.70;99.90
52555;DHT22;38455;52.710;6.502;2023-11-19T03:48:07;11.70;99.90
52555;DHT22;38455;52.710;6.502;2023-11-19T03:50:33;11.80;99.90
52555;DHT22;38455;52.710;6.502;2023-11-19T03:52:59;11.70;99.90
52555;DHT22;38455;52.710;6.502;2023-11-19T03:55:24;11.70;99.90
52555;DHT22;38455;52.710;6.502;2023-11-19T03:57:50;11.70;99.90
52555;DHT22;38455;52.710;6.502;2023-11-19T04:00:16;11.70;99.90
52555;DHT22;38455;52.710;6.502;2023-11-19T04:02:41;11.70;99.90
52555;DHT22;38455;52.710;6.502;2023-11-19T04:05:07;11.70;99.90
52555;DHT22;38455;52.710;6.502;2023-11-19T04:07:33;11.70;99.90
52555;DHT22;38455;52.710;6.502;2023-11-19T04:09:59;11.70;99.90
52555;DHT22;38455;52.710;6.502;2023-11-19T04:12:25;11.70;99.90
52555;DHT22;38455;52.710;6.502;2023-11-19T04:14:51;11.70;99.90
52555;DHT22;38455;52.710;6.502;2023-11-19T04:17:17;11.70;99.90
52555;DHT22;38455;52.710;6.502;2023-11-19T04:19:42;11.70;99.90
52555;DHT22;38455;52.710;6.502;2023-11-19T04:22:08;11.80;99.90
52555;DHT22;38455;52.710;6.502;2023-11-19T04:24:35;11.80;99.90
52555;DHT22;38455;52.710;6.502;2023-11-19T04:27:00;11.70;99.90
52555;DHT22;38455;52.710;6.502;2023-11-19T04:29:26;11.70;99.90
52555;DHT22;38455;52.710;6.502;2023-11-19T04:31:52;11.70;99.90
52555;DHT22;38455;52.710;6.502;2023-11-19T04:34:17;11.70;99.90
52555;DHT22;38455;52.710;6.502;2023-11-19T04:36:43;11.70;99.90
52555;DHT22;38455;52.710;6.502;2023-11-19T04:39:09;11.60;99.90
52555;DHT22;38455;52.710;6.502;2023-11-19T04:41:49;11.60;99.90
52555;DHT22;38455;52.710;6.502;2023-11-19T04:44:15;11.60;99.90
52555;DHT22;38455;52.710;6.502;2023-11-19T04:46:41;11.60;99.90
52555;DHT22;38455;52.710;6.502;2023-11-19T04:49:10;11.50;99.90
52555;DHT22;38455;52.710;6.502;2023-11-19T04:51:43;11.50;99.90
52555;DHT22;38455;52.710;6.502;2023-11-19T04:54:09;11.50;99.90
52555;DHT22;38455;52.710;6.502;2023-11-19T04:56:36;11.50;99.90
52555;DHT22;38455;52.710;6.502;2023-11-19T04:59:06;11.50;99.90
52555;DHT22;38455;52.710;6.502;2023-11-19T05:01:35;11.50;99.90
52555;DHT22;38455;52.710;6.502;2023-11-19T05:04:01;11.50;99.90
52555;DHT22;38455;52.710;6.502;2023-11-19T05:06:31;11.50;99.90
52555;DHT22;38455;52.710;6.502;2023-11-19T05:08:59;11.60;99.90
52555;DHT22;38455;52.710;6.502;2023-11-19T05:11:27;11.60;99.90
52555;DHT22;38455;52.710;6.502;2023-11-19T05:13:54;11.50;99.90
52555;DHT22;38455;52.710;6.502;2023-11-19T05:16:19;11.50;99.90
52555;DHT22;38455;52.710;6.502;2023-11-19T05:18:46;11.50;99.90
52555;DHT22;38455;52.710;6.502;2023-11-19T05:21:12;11.50;99.90
52555;DHT22;38455;52.710;6.502;2023-11-19T05:23:38;11.50;99.90
52555;DHT22;38455;52.710;6.502;2023-11-19T05:26:04;11.60;99.90
52555;DHT22;38455;52.710;6.502;2023-11-19T05:28:30;11.60;99.90
52555;DHT22;38455;52.710;6.502;2023-11-19T05:30:56;11.60;99.90
52555;DHT22;38455;52.710;6.502;2023-11-19T05:33:22;11.60;99.90
52555;DHT22;38455;52.710;6.502;2023-11-19T05:35:47;11.60;99.90
52555;DHT22;38455;52.710;6.502;2023-11-19T05:38:13;11.60;99.90
52555;DHT22;38455;52.710;6.502;2023-11-19T05:40:40;11.60;99.90
52555;DHT22;38455;52.710;6.502;2023-11-19T05:43:06;11.60;99.90
52555;DHT22;38455;52.710;6.502;2023-11-19T05:45:32;11.60;99.90
52555;DHT22;38455;52.710;6.502;2023-11-19T05:47:58;11.60;99.90
52555;DHT22;38455;52.710;6.502;2023-11-19T05:50:23;11.60;99.90
52555;DHT22;38455;52.710;6.502;2023-11-19T05:52:49;11.50;99.90
52555;DHT22;38455;52.710;6.502;2023-11-19T05:55:15;11.50;99.90
52555;DHT22;38455;52.710;6.502;2023-11-19T05:57:41;11.50;99.90
52555;DHT22;38455;52.710;6.502;2023-11-19T06:00:07;11.50;99.90
52555;DHT22;38455;52.710;6.502;2023-11-19T06:02:34;11.50;99.90
52555;DHT22;38455;52.710;6.502;2023-11-19T06:05:00;11.50;99.90
52555;DHT22;38455;52.710;6.502;2023-11-19T06:07:27;11.50;99.90
52555;DHT22;38455;52.710;6.502;2023-11-19T06:09:53;11.50;99.90
52555;DHT22;38455;52.710;6.502;2023-11-19T06:12:19;11.50;99.90
52555;DHT22;38455;52.710;6.502;2023-11-19T06:14:44;11.50;99.90
52555;DHT22;38455;52.710;6.502;2023-11-19T06:17:10;11.40;99.90
52555;DHT22;38455;52.710;6.502;2023-11-19T06:19:37;11.40;99.90
52555;DHT22;38455;52.710;6.502;2023-11-19T06:22:03;11.40;99.90
52555;DHT22;38455;52.710;6.502;2023-11-19T06:24:29;11.30;99.90
52555;DHT22;38455;52.710;6.502;2023-11-19T06:26:55;11.20;99.90
52555;DHT22;38455;52.710;6.502;2023-11-19T06:29:20;11.20;99.90
52555;DHT22;38455;52.710;6.502;2023-11-19T06:31:46;11.20;99.90
52555;DHT22;38455;52.710;6.502;2023-11-19T06:34:14;11.20;99.90
52555;DHT22;38455;52.710;6.502;2023-11-19T06:36:40;11.20;99.90
52555;DHT22;38455;52.710;6.502;2023-11-19T06:39:06;11.20;99.90
52555;DHT22;38455;52.710;6.502;2023-11-19T06:41:32;11.20;99.90
52555;DHT22;38455;52.710;6.502;2023-11-19T06:43:57;11.20;99.90
52555;DHT22;38455;52.710;6.502;2023-11-19T06:46:23;11.20;99.90
52555;DHT22;38455;52.710;6.502;2023-11-19T06:48:49;11.10;99.90
52555;DHT22;38455;52.710;6.502;2023-11-19T06:51:15;11.10;99.90
52555;DHT22;38455;52.710;6.502;2023-11-19T06:53:42;11.10;99.90
52555;DHT22;38455;52.710;6.502;2023-11-19T06:56:20;11.10;99.90
52555;DHT22;38455;52.710;6.502;2023-11-19T06:58:46;11.10;99.90
52555;DHT22;38455;52.710;6.502;2023-11-19T07:01:13;11.10;99.90
52555;DHT22;38455;52.710;6.502;2023-11-19T07:03:39;11.10;99.90
52555;DHT22;38455;52.710;6.502;2023-11-19T07:06:05;11.10;99.90
52555;DHT22;38455;52.710;6.502;2023-11-19T07:08:31;11.00;99.90
52555;DHT22;38455;52.710;6.502;2023-11-19T07:10:56;11.10;99.90
52555;DHT22;38455;52.710;6.502;2023-11-19T07:13:22;11.00;99.90
52555;DHT22;38455;52.710;6.502;2023-11-19T07:15:48;11.00;99.90
52555;DHT22;38455;52.710;6.502;2023-11-19T07:18:14;11.10;99.90
52555;DHT22;38455;52.710;6.502;2023-11-19T07:20:40;11.00;99.90
52555;DHT22;38455;52.710;6.502;2023-11-19T07:23:06;11.10;99.90
52555;DHT22;38455;52.710;6.502;2023-11-19T07:25:32;11.10;99.90
52555;DHT22;38455;52.710;6.502;2023-11-19T07:27:57;11.00;99.90
52555;DHT22;38455;52.710;6.502;2023-11-19T07:30:23;11.00;99.90
52555;DHT22;38455;52.710;6.502;2023-11-19T07:32:48;11.10;99.90
52555;DHT22;38455;52.710;6.502;2023-11-19T07:35:14;11.10;99.90
52555;DHT22;38455;52.710;6.502;2023-11-19T07:37:42;11.10;99.90
52555;DHT22;38455;52.710;6.502;2023-11-19T07:40:08;11.10;99.90
52555;DHT22;38455;52.710;6.502;2023-11-19T07:42:34;11.10;99.90
52555;DHT22;38455;52.710;6.502;2023-11-19T07:44:59;11.10;99.90
52555;DHT22;38455;52.710;6.502;2023-11-19T07:47:25;11.10;99.90
52555;DHT22;38455;52.710;6.502;2023-11-19T07:49:51;11.20;99.90
52555;DHT22;38455;52.710;6.502;2023-11-19T07:52:16;11.20;99.90
52555;DHT22;38455;52.710;6.502;2023-11-19T07:54:43;11.20;99.90
52555;DHT22;38455;52.710;6.502;2023-11-19T07:57:09;11.20;99.90
52555;DHT22;38455;52.710;6.502;2023-11-19T07:59:34;11.20;99.90
52555;DHT22;38455;52.710;6.502;2023-11-19T08:02:00;11.20;99.90
52555;DHT22;38455;52.710;6.502;2023-11-19T08:04:26;11.30;99.90
52555;DHT22;38455;52.710;6.502;2023-11-19T08:06:51;11.30;99.90
52555;DHT22;38455;52.710;6.502;2023-11-19T08:09:17;11.30;99.90
52555;DHT22;38455;52.710;6.502;2023-11-19T08:11:43;11.30;99.90
52555;DHT22;38455;52.710;6.502;2023-11-19T08:14:09;11.30;99.90
52555;DHT22;38455;52.710;6.502;2023-11-19T08:16:35;11.40;99.90
52555;DHT22;38455;52.710;6.502;2023-11-19T08:19:01;11.40;99.90
52555;DHT22;38455;52.710;6.502;2023-11-19T08:21:28;11.40;99.90
52555;DHT22;38455;52.710;6.502;2023-11-19T08:23:54;11.40;99.90
52555;DHT22;38455;52.710;6.502;2023-11-19T08:26:20;11.30;99.90
52555;DHT22;38455;52.710;6.502;2023-11-19T08:28:45;11.30;99.90
52555;DHT22;38455;52.710;6.502;2023-11-19T08:31:11;11.30;99.90
52555;DHT22;38455;52.710;6.502;2023-11-19T08:33:37;11.30;99.90
52555;DHT22;38455;52.710;6.502;2023-11-19T08:36:03;11.20;99.90
52555;DHT22;38455;52.710;6.502;2023-11-19T08:38:29;11.20;99.90
52555;DHT22;38455;52.710;6.502;2023-11-19T08:40:55;11.20;99.90
52555;DHT22;38455;52.710;6.502;2023-11-19T08:43:26;11.20;99.90
52555;DHT22;38455;52.710;6.502;2023-11-19T08:45:51;11.20;99.90
52555;DHT22;38455;52.710;6.502;2023-11-19T08:48:17;11.30;99.90
52555;DHT22;38455;52.710;6.502;2023-11-19T08:50:43;11.40;99.90
52555;DHT22;38455;52.710;6.502;2023-11-19T08:53:09;11.50;99.90
52555;DHT22;38455;52.710;6.502;2023-11-19T08:55:35;11.50;99.90
52555;DHT22;38455;52.710;6.502;2023-11-19T08:58:00;11.60;99.90
52555;DHT22;38455;52.710;6.502;2023-11-19T09:00:26;11.60;99.90
52555;DHT22;38455;52.710;6.502;2023-11-19T09:02:52;11.60;99.90
52555;DHT22;38455;52.710;6.502;2023-11-19T09:05:17;11.70;99.90
52555;DHT22;38455;52.710;6.502;2023-11-19T09:07:43;11.80;99.90
52555;DHT22;38455;52.710;6.502;2023-11-19T09:10:09;11.80;99.90
52555;DHT22;38455;52.710;6.502;2023-11-19T09:12:37;11.80;99.90
52555;DHT22;38455;52.710;6.502;2023-11-19T09:15:03;11.80;99.90
52555;DHT22;38455;52.710;6.502;2023-11-19T09:17:28;11.90;99.90
52555;DHT22;38455;52.710;6.502;2023-11-19T09:19:54;12.10;99.90
52555;DHT22;38455;52.710;6.502;2023-11-19T09:22:20;12.30;99.90
52555;DHT22;38455;52.710;6.502;2023-11-19T09:24:45;12.50;99.90
52555;DHT22;38455;52.710;6.502;2023-11-19T09:27:11;12.60;99.90
52555;DHT22;38455;52.710;6.502;2023-11-19T09:29:37;12.70;99.90
52555;DHT22;38455;52.710;6.502;2023-11-19T09:32:02;12.80;99.90
52555;DHT22;38455;52.710;6.502;2023-11-19T09:34:28;12.90;99.90
52555;DHT22;38455;52.710;6.502;2023-11-19T09:36:54;12.80;99.90
52555;DHT22;38455;52.710;6.502;2023-11-19T09:39:19;12.70;99.90
52555;DHT22;38455;52.710;6.502;2023-11-19T09:41:46;12.60;99.90
52555;DHT22;38455;52.710;6.502;2023-11-19T09:44:13;12.50;99.90
52555;DHT22;38455;52.710;6.502;2023-11-19T09:46:41;12.40;99.90
52555;DHT22;38455;52.710;6.502;2023-11-19T09:49:08;12.40;99.90
52555;DHT22;38455;52.710;6.502;2023-11-19T09:51:38;12.40;99.90
52555;DHT22;38455;52.710;6.502;2023-11-19T09:54:03;12.40;99.90
52555;DHT22;38455;52.710;6.502;2023-11-19T09:56:29;12.40;99.90
52555;DHT22;38455;52.710;6.502;2023-11-19T09:58:55;12.30;99.90
52555;DHT22;38455;52.710;6.502;2023-11-19T10:01:21;12.30;99.90
52555;DHT22;38455;52.710;6.502;2023-11-19T10:03:47;12.20;99.90
52555;DHT22;38455;52.710;6.502;2023-11-19T10:06:14;12.20;99.90
52555;DHT22;38455;52.710;6.502;2023-11-19T10:08:41;12.20;99.90
52555;DHT22;38455;52.710;6.502;2023-11-19T10:11:07;12.20;99.90
52555;DHT22;38455;52.710;6.502;2023-11-19T10:13:37;12.10;99.90
52555;DHT22;38455;52.710;6.502;2023-11-19T10:16:12;12.10;99.90
52555;DHT22;38455;52.710;6.502;2023-11-19T10:18:44;12.10;99.90
52555;DHT22;38455;52.710;6.502;2023-11-19T10:21:12;12.20;99.90
52555;DHT22;38455;52.710;6.502;2023-11-19T10:23:52;12.20;99.90
52555;DHT22;38455;52.710;6.502;2023-11-19T10:26:19;12.10;99.90
52555;DHT22;38455;52.710;6.502;2023-11-19T10:28:46;12.10;99.90
52555;DHT22;38455;52.710;6.502;2023-11-19T10:31:16;12.00;99.90
52555;DHT22;38455;52.710;6.502;2023-11-19T10:33:43;12.10;99.90
52555;DHT22;38455;52.710;6.502;2023-11-19T10:36:11;12.10;99.90
52555;DHT22;38455;52.710;6.502;2023-11-19T10:38:38;12.10;99.90
52555;DHT22;38455;52.710;6.502;2023-11-19T10:41:04;12.10;99.90
52555;DHT22;38455;52.710;6.502;2023-11-19T10:43:31;12.20;99.90
52555;DHT22;38455;52.710;6.502;2023-11-19T10:46:13;12.20;99.90
52555;DHT22;38455;52.710;6.502;2023-11-19T10:48:39;12.30;99.90
52555;DHT22;38455;52.710;6.502;2023-11-19T10:51:06;12.30;99.90
52555;DHT22;38455;52.710;6.502;2023-11-19T10:53:37;12.30;99.90
52555;DHT22;38455;52.710;6.502;2023-11-19T10:56:10;12.30;99.90
52555;DHT22;38455;52.710;6.502;2023-11-19T10:58:37;12.40;99.90
52555;DHT22;38455;52.710;6.502;2023-11-19T11:01:13;12.40;99.90
52555;DHT22;38455;52.710;6.502;2023-11-19T11:03:42;12.50;99.90
52555;DHT22;38455;52.710;6.502;2023-11-19T11:06:13;12.70;99.90
52555;DHT22;38455;52.710;6.502;2023-11-19T11:08:39;12.80;99.90
52555;DHT22;38455;52.710;6.502;2023-11-19T11:11:06;12.90;99.90
52555;DHT22;38455;52.710;6.502;2023-11-19T11:13:35;12.90;99.90
52555;DHT22;38455;52.710;6.502;2023-11-19T11:16:04;12.80;99.90
52555;DHT22;38455;52.710;6.502;2023-11-19T11:18:32;12.80;99.90
52555;DHT22;38455;52.710;6.502;2023-11-19T11:21:08;12.70;99.90
52555;DHT22;38455;52.710;6.502;2023-11-19T11:29:20;12.40;99.90
52555;DHT22;38455;52.710;6.502;2023-11-19T11:37:46;12.20;99.90
52555;DHT22;38455;52.710;6.502;2023-11-19T11:40:17;12.10;99.90
52555;DHT22;38455;52.710;6.502;2023-11-19T11:42:44;12.10;99.90
52555;DHT22;38455;52.710;6.502;2023-11-19T11:45:14;12.10;99.90
52555;DHT22;38455;52.710;6.502;2023-11-19T11:50:10;12.00;99.90
52555;DHT22;38455;52.710;6.502;2023-11-19T11:55:56;11.90;99.90
52555;DHT22;38455;52.710;6.502;2023-11-19T11:58:30;12.00;99.90
52555;DHT22;38455;52.710;6.502;2023-11-19T12:00:58;12.20;99.90
52555;DHT22;38455;52.710;6.502;2023-11-19T12:03:27;12.60;99.90
52555;DHT22;38455;52.710;6.502;2023-11-19T12:05:54;12.80;99.90
52555;DHT22;38455;52.710;6.502;2023-11-19T12:08:23;12.90;99.90
52555;DHT22;38455;52.710;6.502;2023-11-19T12:10:51;12.90;99.90
52555;DHT22;38455;52.710;6.502;2023-11-19T12:13:19;12.90;99.90
52555;DHT22;38455;52.710;6.502;2023-11-19T12:18:32;13.20;99.90
52555;DHT22;38455;52.710;6.502;2023-11-19T12:20:58;13.40;99.90
52555;DHT22;38455;52.710;6.502;2023-11-19T12:23:28;13.50;99.90
52555;DHT22;38455;52.710;6.502;2023-11-19T12:25:55;13.50;99.90
52555;DHT22;38455;52.710;6.502;2023-11-19T12:28:20;13.50;99.90
52555;DHT22;38455;52.710;6.502;2023-11-19T12:30:46;13.60;99.90
52555;DHT22;38455;52.710;6.502;2023-11-19T12:33:13;13.50;99.90
52555;DHT22;38455;52.710;6.502;2023-11-19T12:38:05;13.30;99.90
52555;DHT22;38455;52.710;6.502;2023-11-19T12:40:31;13.20;99.90
52555;DHT22;38455;52.710;6.502;2023-11-19T12:42:57;13.10;99.90
52555;DHT22;38455;52.710;6.502;2023-11-19T12:45:23;13.10;99.90
52555;DHT22;38455;52.710;6.502;2023-11-19T12:47:49;13.00;99.90
52555;DHT22;38455;52.710;6.502;2023-11-19T12:50:18;12.90;99.90
52555;DHT22;38455;52.710;6.502;2023-11-19T12:52:56;12.70;99.90
52555;DHT22;38455;52.710;6.502;2023-11-19T12:55:25;12.60;99.90
52555;DHT22;38455;52.710;6.502;2023-11-19T12:57:51;12.50;99.90
52555;DHT22;38455;52.710;6.502;2023-11-19T13:00:24;12.50;99.90
52555;DHT22;38455;52.710;6.502;2023-11-19T13:02:55;12.50;99.90
52555;DHT22;38455;52.710;6.502;2023-11-19T13:08:08;12.40;99.90
52555;DHT22;38455;52.710;6.502;2023-11-19T13:13:14;12.30;99.90
52555;DHT22;38455;52.710;6.502;2023-11-19T13:15:40;12.30;99.90
52555;DHT22;38455;52.710;6.502;2023-11-19T13:18:06;12.30;99.90
52555;DHT22;38455;52.710;6.502;2023-11-19T13:20:32;12.30;99.90
52555;DHT22;38455;52.710;6.502;2023-11-19T13:25:25;12.20;99.90
52555;DHT22;38455;52.710;6.502;2023-11-19T13:27:51;12.20;99.90
52555;DHT22;38455;52.710;6.502;2023-11-19T13:30:17;12.20;99.90
52555;DHT22;38455;52.710;6.502;2023-11-19T13:32:44;12.10;99.90
52555;DHT22;38455;52.710;6.502;2023-11-19T13:35:14;12.10;99.90
52555;DHT22;38455;52.710;6.502;2023-11-19T13:37:40;12.10;99.90
52555;DHT22;38455;52.710;6.502;2023-11-19T13:40:09;12.00;99.90
52555;DHT22;38455;52.710;6.502;2023-11-19T13:42:36;12.00;99.90
52555;DHT22;38455;52.710;6.502;2023-11-19T13:45:10;11.90;99.90
52555;DHT22;38455;52.710;6.502;2023-11-19T13:47:38;11.90;99.90
52555;DHT22;38455;52.710;6.502;2023-11-19T13:50:07;11.80;99.90
52555;DHT22;38455;52.710;6.502;2023-11-19T13:52:34;11.90;99.90
52555;DHT22;38455;52.710;6.502;2023-11-19T13:55:00;11.90;99.90
52555;DHT22;38455;52.710;6.502;2023-11-19T13:57:26;11.90;99.90
52555;DHT22;38455;52.710;6.502;2023-11-19T13:59:51;11.90;99.90
52555;DHT22;38455;52.710;6.502;2023-11-19T14:02:17;11.90;99.90
52555;DHT22;38455;52.710;6.502;2023-11-19T14:04:42;11.90;99.90
52555;DHT22;38455;52.710;6.502;2023-11-19T14:07:08;11.90;99.90
52555;DHT22;38455;52.710;6.502;2023-11-19T14:09:34;11.90;99.90
52555;DHT22;38455;52.710;6.502;2023-11-19T14:11:59;11.80;99.90
52555;DHT22;38455;52.710;6.502;2023-11-19T14:14:25;11.80;99.90
52555;DHT22;38455;52.710;6.502;2023-11-19T14:16:50;11.80;99.90
52555;DHT22;38455;52.710;6.502;2023-11-19T14:19:16;11.80;99.90
52555;DHT22;38455;52.710;6.502;2023-11-19T14:21:42;11.80;99.90
52555;DHT22;38455;52.710;6.502;2023-11-19T14:24:08;11.80;99.90
52555;DHT22;38455;52.710;6.502;2023-11-19T14:26:33;11.70;99.90
52555;DHT22;38455;52.710;6.502;2023-11-19T14:28:59;11.80;99.90
52555;DHT22;38455;52.710;6.502;2023-11-19T14:31:28;11.70;99.90
52555;DHT22;38455;52.710;6.502;2023-11-19T14:33:54;11.70;99.90
52555;DHT22;38455;52.710;6.502;2023-11-19T14:36:20;11.70;99.90
52555;DHT22;38455;52.710;6.502;2023-11-19T14:38:47;11.70;99.90
52555;DHT22;38455;52.710;6.502;2023-11-19T14:41:12;11.60;99.90
52555;DHT22;38455;52.710;6.502;2023-11-19T14:43:39;11.60;99.90
52555;DHT22;38455;52.710;6.502;2023-11-19T14:46:05;11.60;99.90
52555;DHT22;38455;52.710;6.502;2023-11-19T14:48:32;11.60;99.90
52555;DHT22;38455;52.710;6.502;2023-11-19T14:50:58;11.60;99.90
52555;DHT22;38455;52.710;6.502;2023-11-19T14:53:23;11.50;99.90
52555;DHT22;38455;52.710;6.502;2023-11-19T14:55:49;11.60;99.90
52555;DHT22;38455;52.710;6.502;2023-11-19T14:58:14;11.50;99.90
52555;DHT22;38455;52.710;6.502;2023-11-19T15:00:40;11.50;99.90
52555;DHT22;38455;52.710;6.502;2023-11-19T15:03:05;11.50;99.90
52555;DHT22;38455;52.710;6.502;2023-11-19T15:05:31;11.50;99.90
52555;DHT22;38455;52.710;6.502;2023-11-19T15:07:57;11.50;99.90
52555;DHT22;38455;52.710;6.502;2023-11-19T15:10:23;11.50;99.90
52555;DHT22;38455;52.710;6.502;2023-11-19T15:12:50;11.50;99.90
52555;DHT22;38455;52.710;6.502;2023-11-19T15:15:15;11.50;99.90
52555;DHT22;38455;52.710;6.502;2023-11-19T15:17:41;11.40;99.90
52555;DHT22;38455;52.710;6.502;2023-11-19T15:20:07;11.40;99.90
52555;DHT22;38455;52.710;6.502;2023-11-19T15:22:33;11.40;99.90
52555;DHT22;38455;52.710;6.502;2023-11-19T15:24:59;11.50;99.90
52555;DHT22;38455;52.710;6.502;2023-11-19T15:27:25;11.50;99.90
52555;DHT22;38455;52.710;6.502;2023-11-19T15:29:50;11.40;99.90
52555;DHT22;38455;52.710;6.502;2023-11-19T15:32:17;11.40;99.90
52555;DHT22;38455;52.710;6.502;2023-11-19T15:34:43;11.40;99.90
52555;DHT22;38455;52.710;6.502;2023-11-19T15:37:08;11.40;99.90
52555;DHT22;38455;52.710;6.502;2023-11-19T15:39:34;11.40;99.90
52555;DHT22;38455;52.710;6.502;2023-11-19T15:42:02;11.40;99.90
52555;DHT22;38455;52.710;6.502;2023-11-19T15:44:28;11.40;99.90
52555;DHT22;38455;52.710;6.502;2023-11-19T15:46:54;11.40;99.90
52555;DHT22;38455;52.710;6.502;2023-11-19T15:49:20;11.30;99.90
52555;DHT22;38455;52.710;6.502;2023-11-19T15:51:46;11.30;99.90
52555;DHT22;38455;52.710;6.502;2023-11-19T15:54:11;11.30;99.90
52555;DHT22;38455;52.710;6.502;2023-11-19T15:56:37;11.30;99.90